Time;durP1;ratioP1;P1;durP2;ratioP2;P2;SDS_P1;SDS_P2;PMS_P1;PMS_P2;Temp;Humidity;BMP_temperature;BMP_pressure;BME280_temperature;BME280_humidity;BME280_pressure;Samples;Min_cycle;Max_cycle;Signal;HPM_P1;HPM_P2
2023/10/05 00:00:57;;;;;;;;;11.33;9.67;;;;;15.56;100.00;102153.28;5007408;28;45528;-81
2023/10/05 00:03:22;;;;;;;;;11.33;10.00;;;;;15.42;100.00;102141.28;5012882;28;47169;-82
2023/10/05 00:05:48;;;;;;;;;11.67;11.33;;;;;15.55;100.00;102155.16;5010627;28;45365;-79
2023/10/05 00:08:14;;;;;;;;;11.33;9.33;;;;;15.53;100.00;102151.78;5018139;28;45724;-80
2023/10/05 00:10:39;;;;;;;;;13.33;9.67;;;;;15.56;100.00;102147.75;5014717;28;46053;-83
2023/10/05 00:13:07;;;;;;;;;8.67;8.67;;;;;15.54;100.00;102143.25;5012015;28;47247;-83
2023/10/05 00:15:36;;;;;;;;;11.67;6.67;;;;;15.46;100.00;102131.53;5010767;28;45831;-81
2023/10/05 00:18:03;;;;;;;;;13.33;8.67;;;;;15.43;100.00;102134.72;5025029;28;45701;-82
2023/10/05 00:20:34;;;;;;;;;10.67;8.33;;;;;15.45;100.00;102151.94;5016295;28;46225;-83
2023/10/05 00:23:03;;;;;;;;;8.00;8.00;;;;;15.38;100.00;102145.56;5016095;28;45836;-79
2023/10/05 00:25:32;;;;;;;;;9.00;6.33;;;;;15.34;100.00;102143.22;5011860;28;45565;-82
2023/10/05 00:28:00;;;;;;;;;14.00;10.33;;;;;15.43;100.00;102156.84;5018721;28;45388;-81
2023/10/05 00:30:25;;;;;;;;;10.33;9.33;;;;;15.38;100.00;102137.25;5027593;28;46335;-82
2023/10/05 00:32:56;;;;;;;;;12.67;10.33;;;;;15.40;100.00;102140.66;5015103;28;47101;-82
2023/10/05 00:35:26;;;;;;;;;8.00;7.33;;;;;15.45;100.00;102160.22;5011315;28;45849;-83
2023/10/05 00:37:52;;;;;;;;;10.33;9.33;;;;;15.40;100.00;102141.50;5032459;28;45909;-78
2023/10/05 00:43:24;;;;;;;;;10.33;8.33;;;;;15.45;100.00;102155.56;5013162;28;46017;-79
2023/10/05 00:45:50;;;;;;;;;13.33;9.33;;;;;15.47;100.00;102158.13;5009661;28;45838;-82
2023/10/05 00:48:34;;;;;;;;;9.67;8.67;;;;;15.40;100.00;102140.66;5022039;28;45485;-77
2023/10/05 00:51:00;;;;;;;;;10.67;10.67;;;;;15.40;100.00;102146.19;5014742;28;47160;-79
2023/10/05 00:53:30;;;;;;;;;8.00;8.00;;;;;15.47;100.00;102138.78;5019178;28;45489;-82
2023/10/05 00:56:12;;;;;;;;;9.67;7.33;;;;;15.45;100.00;102132.59;5022873;28;45493;-82
2023/10/05 00:58:42;;;;;;;;;18.33;6.33;;;;;15.35;100.00;102128.31;5019358;28;45295;-81
2023/10/05 01:01:15;;;;;;;;;8.33;8.33;;;;;15.28;100.00;102123.81;5020606;28;47142;-83
2023/10/05 01:09:15;;;;;;;;;13.00;9.00;;;;;15.36;100.00;102152.13;5027634;28;45937;-83
2023/10/05 01:11:51;;;;;;;;;9.00;9.00;;;;;15.36;100.00;102162.34;5031851;28;44957;-85
2023/10/05 01:14:18;;;;;;;;;8.33;7.00;;;;;15.28;100.00;102145.94;5032097;28;46127;-82
2023/10/05 01:16:44;;;;;;;;;13.00;9.67;;;;;15.39;100.00;102161.06;5030611;28;44918;-81
2023/10/05 01:19:10;;;;;;;;;10.33;7.67;;;;;15.29;100.00;102142.94;5032879;28;44975;-83
2023/10/05 01:21:36;;;;;;;;;8.33;6.33;;;;;15.29;100.00;102145.72;5031900;28;46070;-83
2023/10/05 01:24:03;;;;;;;;;13.33;9.00;;;;;15.42;100.00;102155.13;5034094;28;45791;-82
2023/10/05 01:26:28;;;;;;;;;9.67;6.00;;;;;15.35;100.00;102141.28;5023829;28;45448;-79
2023/10/05 01:28:54;;;;;;;;;8.33;7.67;;;;;15.43;100.00;102151.31;5027569;28;45791;-83
2023/10/05 01:31:21;;;;;;;;;9.33;8.33;;;;;15.43;100.00;102143.00;5027402;28;45653;-80
2023/10/05 01:33:46;;;;;;;;;9.00;7.33;;;;;15.43;100.00;102138.31;5017675;28;46169;-79
2023/10/05 01:36:15;;;;;;;;;11.33;10.33;;;;;15.41;100.00;102136.84;5030040;28;45486;-83
2023/10/05 01:38:41;;;;;;;;;9.67;8.33;;;;;15.46;100.00;102134.28;5033977;28;45122;-83
2023/10/05 01:41:13;;;;;;;;;7.67;7.67;;;;;15.36;100.00;102118.13;5028523;28;46988;-81
2023/10/05 01:43:42;;;;;;;;;8.00;7.33;;;;;15.39;100.00;102130.66;5029708;28;45355;-80
2023/10/05 01:46:10;;;;;;;;;10.00;7.33;;;;;15.33;100.00;102113.84;5028218;28;45469;-81
2023/10/05 01:48:39;;;;;;;;;8.33;6.00;;;;;15.40;100.00;102122.16;5045264;28;45463;-82
2023/10/05 01:51:10;;;;;;;;;9.00;6.33;;;;;15.40;100.00;102121.31;5016393;28;45883;-77
2023/10/05 01:53:36;;;;;;;;;8.67;7.67;;;;;15.36;100.00;102116.19;5014838;28;46218;-78
2023/10/05 01:56:03;;;;;;;;;8.00;5.33;;;;;15.44;100.00;102122.59;5024559;28;45862;-79
2023/10/05 01:58:31;;;;;;;;;8.67;7.67;;;;;15.46;100.00;102135.13;5015666;28;45442;-78
2023/10/05 02:00:56;;;;;;;;;7.00;7.00;;;;;15.49;100.00;102134.75;5019010;28;45612;-78
2023/10/05 02:03:23;;;;;;;;;12.67;9.00;;;;;15.52;100.00;102130.69;5011772;28;46707;-79
2023/10/05 02:05:50;;;;;;;;;8.67;8.00;;;;;15.51;100.00;102127.09;5026519;28;45243;-81
2023/10/05 02:08:16;;;;;;;;;9.33;6.67;;;;;15.53;100.00;102137.94;5034995;28;45206;-83
2023/10/05 02:10:46;;;;;;;;;8.33;7.00;;;;;15.40;100.00;102107.47;5035282;28;46557;-82
2023/10/05 02:13:12;;;;;;;;;8.67;7.33;;;;;15.47;100.00;102106.44;5029001;28;45168;-82
2023/10/05 02:15:41;;;;;;;;;3.67;2.67;;;;;15.42;100.00;102103.47;5034790;28;45038;-81
2023/10/05 02:18:13;;;;;;;;;6.00;5.33;;;;;15.53;100.00;102124.13;5024004;28;45323;-83
2023/10/05 02:20:45;;;;;;;;;4.00;4.00;;;;;15.52;100.00;102119.63;5033823;28;45950;-81
2023/10/05 02:23:25;;;;;;;;;8.00;6.67;;;;;15.53;100.00;102129.66;5032606;28;46867;-82
2023/10/05 02:25:56;;;;;;;;;4.00;4.00;;;;;15.33;100.00;102094.50;5041184;28;44994;-82
2023/10/05 02:28:33;;;;;;;;;8.33;6.00;;;;;15.50;100.00;102124.53;5030354;28;45448;-81
2023/10/05 02:31:05;;;;;;;;;10.00;5.33;;;;;15.53;100.00;102124.13;5030191;28;45261;-82
2023/10/05 02:33:32;;;;;;;;;6.33;4.67;;;;;15.52;100.00;102114.09;5034192;28;45496;-82
2023/10/05 02:38:49;;;;;;;;;6.00;4.00;;;;;15.49;100.00;102123.69;5036892;28;45429;-82
2023/10/05 02:41:16;;;;;;;;;6.00;4.00;;;;;15.48;100.00;102115.59;5029599;28;45288;-83
2023/10/05 02:43:51;;;;;;;;;10.00;5.33;;;;;15.47;100.00;102102.84;5016741;28;46492;-82
2023/10/05 02:46:17;;;;;;;;;2.00;2.00;;;;;15.51;100.00;102121.56;5017369;28;45486;-83
2023/10/05 02:48:43;;;;;;;;;7.33;5.33;;;;;15.48;100.00;102119.22;5008474;28;45455;-82
2023/10/05 02:51:13;;;;;;;;;6.33;5.00;;;;;15.40;100.00;102101.97;5017328;28;47061;-80
2023/10/05 02:53:47;;;;;;;;;4.00;4.00;;;;;15.52;100.00;102119.63;5020950;28;45527;-83
2023/10/05 02:56:20;;;;;;;;;6.00;6.00;;;;;15.52;100.00;102112.22;5019139;28;46135;-82
2023/10/05 02:58:48;;;;;;;;;7.00;5.33;;;;;15.47;100.00;102105.59;5015333;28;45766;-83
2023/10/05 03:01:15;;;;;;;;;5.67;5.00;;;;;15.43;100.00;102105.16;5020048;28;46793;-82
2023/10/05 03:03:43;;;;;;;;;4.33;4.33;;;;;15.40;100.00;102096.44;5018223;28;47452;-82
2023/10/05 03:06:10;;;;;;;;;8.00;5.33;;;;;15.50;100.00;102113.47;5032253;28;45601;-84
2023/10/05 03:08:36;;;;;;;;;12.33;6.00;;;;;15.47;100.00;102114.75;5018537;28;45360;-82
2023/10/05 03:11:03;;;;;;;;;7.00;5.33;;;;;15.38;100.00;102098.56;5022596;28;45826;-82
2023/10/05 03:13:31;;;;;;;;;7.33;4.00;;;;;15.47;100.00;102111.13;5012388;28;46245;-81
2023/10/05 03:15:59;;;;;;;;;5.67;4.00;;;;;15.44;100.00;102106.03;5029327;28;46477;-83
2023/10/05 03:18:25;;;;;;;;;6.00;4.33;;;;;15.45;100.00;102111.34;5020365;28;45574;-82
2023/10/05 03:20:51;;;;;;;;;4.33;4.33;;;;;15.43;100.00;102098.78;5014345;28;46442;-83
2023/10/05 03:23:16;;;;;;;;;8.67;6.67;;;;;15.35;100.00;102086.84;5016859;28;45829;-81
2023/10/05 03:25:42;;;;;;;;;5.33;5.00;;;;;15.33;100.00;102094.50;5019053;28;45779;-84
2023/10/05 03:28:07;;;;;;;;;5.00;4.67;;;;;15.35;100.00;102105.34;5015350;28;46018;-82
2023/10/05 03:30:35;;;;;;;;;4.33;4.33;;;;;15.31;100.00;102107.69;5017461;28;45747;-82
2023/10/05 03:33:01;;;;;;;;;5.33;5.33;;;;;15.26;100.00;102099.16;5022172;28;46198;-83
2023/10/05 03:35:27;;;;;;;;;5.00;4.00;;;;;15.23;100.00;102104.25;5018234;28;45470;-85
2023/10/05 03:37:54;;;;;;;;;7.67;4.33;;;;;15.19;100.00;102106.56;5020088;28;45824;-79
2023/10/05 03:40:22;;;;;;;;;5.00;4.00;;;;;15.21;100.00;102106.34;5015472;28;45889;-78
2023/10/05 03:42:56;;;;;;;;;11.00;6.67;;;;;15.18;100.00;102104.88;5020498;28;47223;-83
2023/10/05 03:45:22;;;;;;;;;8.33;7.67;;;;;15.14;100.00;102109.94;5025518;28;45509;-83
2023/10/05 03:47:49;;;;;;;;;4.33;4.33;;;;;15.08;100.00;102101.63;5034517;28;44796;-81
2023/10/05 03:50:18;;;;;;;;;4.00;4.00;;;;;15.04;100.00;102119.66;5028781;28;45625;-83
2023/10/05 03:52:47;;;;;;;;;4.33;2.67;;;;;14.97;100.00;102117.72;5030726;28;46722;-81
2023/10/05 03:55:18;;;;;;;;;8.00;7.33;;;;;15.01;100.00;102126.44;5031891;28;45377;-83
2023/10/05 03:57:44;;;;;;;;;5.00;4.33;;;;;14.96;100.00;102126.22;5021813;28;45974;-83
2023/10/05 04:00:23;;;;;;;;;8.33;6.00;;;;;14.79;100.00;102111.88;5041077;28;45855;-83
2023/10/05 04:02:52;;;;;;;;;5.33;5.33;;;;;14.87;100.00;102124.69;5023083;28;45700;-80
2023/10/05 04:05:20;;;;;;;;;6.33;6.00;;;;;14.81;100.00;102126.34;5022628;28;45434;-82
2023/10/05 04:07:49;;;;;;;;;8.00;5.67;;;;;14.73;100.00;102124.59;5017237;28;45854;-81
2023/10/05 04:10:15;;;;;;;;;8.67;3.67;;;;;14.67;100.00;102119.91;5036566;28;46064;-84
2023/10/05 04:12:41;;;;;;;;;7.33;6.33;;;;;14.61;100.00;102118.78;5022532;28;45696;-86
2023/10/05 04:15:11;;;;;;;;;6.00;4.00;;;;;14.63;100.00;102127.72;5023876;28;46022;-82
2023/10/05 04:17:40;;;;;;;;;9.33;6.67;;;;;14.51;100.00;102115.50;5025687;28;45384;-83
2023/10/05 04:22:50;;;;;;;;;6.00;4.00;;;;;14.55;100.00;102127.84;5021638;28;45509;-83
2023/10/05 04:25:16;;;;;;;;;5.67;4.33;;;;;14.54;100.00;102131.66;5020395;28;45678;-82
2023/10/05 04:27:44;;;;;;;;;7.67;5.00;;;;;14.51;100.00;102132.06;5016979;28;45578;-79
2023/10/05 04:30:13;;;;;;;;;6.33;6.33;;;;;14.52;100.00;102139.31;5005902;28;45522;-80
2023/10/05 04:32:38;;;;;;;;;8.67;6.33;;;;;14.47;100.00;102134.34;5007335;28;46461;-78
2023/10/05 04:35:14;;;;;;;;;21.67;17.00;;;;;14.46;100.00;102134.56;5011663;28;45617;-84
2023/10/05 04:37:39;;;;;;;;;11.33;10.00;;;;;14.36;100.00;102134.09;5009372;28;45923;-80
2023/10/05 04:40:09;;;;;;;;;48.00;35.00;;;;;14.33;100.00;102128.97;5004489;28;45501;-79
2023/10/05 04:42:34;;;;;;;;;16.33;13.00;;;;;14.34;100.00;102141.69;5008803;28;47142;-82
2023/10/05 04:44:59;;;;;;;;;19.67;15.00;;;;;14.23;100.00;102127.38;5007192;28;45722;-83
2023/10/05 04:47:27;;;;;;;;;7.00;6.00;;;;;14.22;100.00;102127.56;5010093;28;46102;-80
2023/10/05 04:49:53;;;;;;;;;9.00;9.00;;;;;14.10;100.00;102114.34;5015743;28;45514;-87
2023/10/05 04:52:23;;;;;;;;;7.33;5.00;;;;;14.03;100.00;102121.69;5019754;28;47690;-85
2023/10/05 04:54:57;;;;;;;;;7.00;4.00;;;;;13.96;100.00;102112.50;5018223;28;46807;-82
2023/10/05 04:57:35;;;;;;;;;3.67;3.00;;;;;13.80;100.00;102085.19;5014066;28;45650;-82
2023/10/05 05:00:48;;;;;;;;;9.67;5.00;;;;;13.70;100.00;102080.88;5009575;28;47257;-84
2023/10/05 05:03:16;;;;;;;;;6.33;5.00;;;;;13.80;100.00;102091.53;5013296;28;45880;-83
2023/10/05 05:08:27;;;;;;;;;8.33;5.67;;;;;13.67;100.00;102092.28;5027636;28;45431;-82
2023/10/05 05:10:53;;;;;;;;;5.00;5.00;;;;;13.81;100.00;102123.59;5024847;28;45691;-81
2023/10/05 05:13:20;;;;;;;;;7.33;7.00;;;;;13.73;100.00;102109.97;5014127;28;45496;-82
2023/10/05 05:15:47;;;;;;;;;6.33;5.00;;;;;13.77;100.00;102119.53;5004322;28;45966;-79
2023/10/05 05:18:16;;;;;;;;;10.00;6.33;;;;;13.62;100.00;102099.44;5027859;28;45836;-83
2023/10/05 05:20:43;;;;;;;;;8.33;6.33;;;;;13.66;100.00;102106.28;5017140;28;46058;-82
2023/10/05 05:23:10;;;;;;;;;6.67;6.67;;;;;13.72;100.00;102124.78;5020778;28;46345;-83
2023/10/05 05:25:37;;;;;;;;;5.67;5.67;;;;;13.48;100.00;102081.91;5015959;28;45700;-83
2023/10/05 05:28:05;;;;;;;;;6.67;5.00;;;;;13.69;100.00;102116.91;5017784;28;45490;-86
2023/10/05 05:31:16;;;;;;;;;8.00;8.00;;;;;13.67;100.00;102114.34;5015943;28;46200;-85
2023/10/05 05:33:44;;;;;;;;;11.00;8.00;;;;;13.51;100.00;102103.56;5005473;28;45757;-80
2023/10/05 05:36:13;;;;;;;;;11.67;8.00;;;;;13.60;100.00;102106.00;5016974;28;45992;-78
2023/10/05 05:38:47;;;;;;;;;11.33;8.33;;;;;13.64;100.00;102119.38;5011467;28;46317;-76
2023/10/05 05:41:19;;;;;;;;;6.00;6.00;;;;;13.56;100.00;102112.97;5033308;28;45783;-78
2023/10/05 05:43:45;;;;;;;;;11.00;5.00;;;;;13.60;100.00;102124.44;5014472;28;46042;-78
2023/10/05 05:46:12;;;;;;;;;10.67;7.00;;;;;13.51;100.00;102112.69;5011163;28;45490;-78
2023/10/05 05:48:39;;;;;;;;;10.67;9.67;;;;;13.62;100.00;102132.50;5012396;28;45483;-83
2023/10/05 05:51:06;;;;;;;;;9.67;7.00;;;;;13.50;100.00;102124.78;5014510;28;45574;-82
2023/10/05 05:53:32;;;;;;;;;14.00;10.00;;;;;13.59;100.00;102137.38;5015194;28;46445;-81
2023/10/05 05:56:01;;;;;;;;;8.33;8.33;;;;;13.60;100.00;102146.50;5016670;28;45647;-81
2023/10/05 05:58:26;;;;;;;;;8.00;7.00;;;;;13.52;100.00;102127.34;5013568;28;45920;-82
2023/10/05 06:00:52;;;;;;;;;13.00;10.00;;;;;13.51;100.00;102131.13;5013264;28;45568;-82
2023/10/05 06:03:18;;;;;;;;;12.67;10.67;;;;;13.61;100.00;102150.97;5011554;28;45574;-79
2023/10/05 06:05:43;;;;;;;;;8.00;8.00;;;;;13.65;100.00;102165.19;5026021;28;45611;-78
2023/10/05 06:08:11;;;;;;;;;11.00;8.67;;;;;13.64;100.00;102153.34;5010880;28;45380;-85
2023/10/05 06:10:37;;;;;;;;;10.33;9.00;;;;;13.72;100.00;102160.63;5021307;28;47340;-82
2023/10/05 06:13:05;;;;;;;;;11.00;8.33;;;;;13.79;100.00;102161.56;5018237;28;46163;-83
2023/10/05 06:15:31;;;;;;;;;9.33;9.33;;;;;13.81;100.00;102161.34;5026404;28;45552;-78
2023/10/05 06:17:59;;;;;;;;;10.67;8.00;;;;;13.91;100.00;102165.50;5005314;28;45607;-83
2023/10/05 06:20:25;;;;;;;;;14.00;10.00;;;;;13.99;100.00;102160.91;5007865;28;46254;-82
2023/10/05 06:22:51;;;;;;;;;8.33;8.33;;;;;13.95;100.00;102142.00;4999752;28;47498;-78
2023/10/05 06:25:17;;;;;;;;;9.33;9.00;;;;;14.20;100.00;102166.41;5007886;28;45424;-79
2023/10/05 06:27:44;;;;;;;;;12.00;10.67;;;;;14.16;100.00;102145.81;5006306;28;45718;-79
2023/10/05 06:30:14;;;;;;;;;5.33;5.33;;;;;14.33;100.00;102153.81;5011825;28;45555;-79
2023/10/05 06:32:40;;;;;;;;;11.00;8.33;;;;;14.44;100.00;102147.72;5021246;28;46304;-79
2023/10/05 06:35:09;;;;;;;;;12.67;7.67;;;;;14.70;100.00;102130.53;5012553;28;45062;-82
2023/10/05 06:37:39;;;;;;;;;7.33;6.00;;;;;15.06;100.00;102139.66;5022379;28;45721;-82
2023/10/05 06:40:14;;;;;;;;;11.00;8.00;;;;;15.46;100.00;102161.94;5012952;28;45715;-85
2023/10/05 06:42:43;;;;;;;;;9.67;8.00;;;;;15.70;100.00;102149.47;5007739;28;45585;-81
2023/10/05 06:45:13;;;;;;;;;11.00;10.00;;;;;16.02;100.00;102156.19;5013467;28;45650;-81
2023/10/05 06:47:39;;;;;;;;;10.33;7.67;;;;;16.14;100.00;102158.34;5011170;28;45739;-78
2023/10/05 06:50:10;;;;;;;;;10.67;10.67;;;;;16.40;100.00;102174.94;5010119;28;45895;-79
2023/10/05 06:52:42;;;;;;;;;7.33;6.33;;;;;16.63;100.00;102157.06;5009274;28;46111;-80
2023/10/05 06:55:09;;;;;;;;;8.33;8.33;;;;;16.82;100.00;102171.06;5011147;28;45532;-78
2023/10/05 06:57:36;;;;;;;;;15.00;12.67;;;;;16.86;100.00;102167.66;5016367;28;45657;-80
2023/10/05 07:00:16;;;;;;;;;8.00;7.67;;;;;16.93;100.00;102182.38;5026253;28;45722;-80
2023/10/05 07:02:46;;;;;;;;;7.33;6.00;;;;;17.00;100.00;102157.41;5011082;28;46152;-80
2023/10/05 07:05:12;;;;;;;;;9.33;8.33;;;;;16.94;100.00;102141.66;5013002;28;45537;-78
2023/10/05 07:07:38;;;;;;;;;10.33;8.33;;;;;17.10;100.00;102159.75;5011395;28;45430;-80
2023/10/05 07:10:06;;;;;;;;;11.33;10.33;;;;;17.16;100.00;102160.81;5012033;28;45612;-80
2023/10/05 07:12:35;;;;;;;;;9.67;9.00;;;;;17.23;100.00;102179.13;5012892;28;45786;-84
2023/10/05 07:15:05;;;;;;;;;9.33;7.67;;;;;17.18;100.00;102181.66;5017479;28;45787;-84
2023/10/05 07:17:31;;;;;;;;;11.00;10.67;;;;;17.23;100.00;102187.44;5031068;28;45890;-83
2023/10/05 07:20:01;;;;;;;;;12.67;9.00;;;;;17.26;100.00;102183.34;5017476;28;45926;-81
2023/10/05 07:22:26;;;;;;;;;7.33;7.33;;;;;17.19;100.00;102171.44;5016840;28;45940;-84
2023/10/05 07:24:52;;;;;;;;;10.33;7.67;;;;;17.27;100.00;102163.72;5014854;28;45820;-82
2023/10/05 07:27:18;;;;;;;;;11.33;8.67;;;;;17.40;100.00;102173.09;5015692;28;45693;-83
2023/10/05 07:29:45;;;;;;;;;11.00;9.33;;;;;17.55;100.00;102168.09;5017680;28;45727;-84
2023/10/05 07:32:11;;;;;;;;;8.33;8.33;;;;;17.81;100.00;102177.34;5018217;28;45492;-83
2023/10/05 07:34:39;;;;;;;;;10.00;10.00;;;;;17.96;100.00;102160.41;5015264;28;46020;-77
2023/10/05 07:37:05;;;;;;;;;14.00;9.33;;;;;18.37;100.00;102183.19;5009776;28;45692;-78
2023/10/05 07:39:31;;;;;;;;;10.00;9.00;;;;;18.59;100.00;102192.81;5009459;28;45536;-79
2023/10/05 07:41:59;;;;;;;;;6.00;6.00;;;;;18.68;100.00;102191.47;5010597;28;45771;-80
2023/10/05 07:44:27;;;;;;;;;11.67;7.67;;;;;18.92;100.00;102213.94;5014836;28;45362;-78
2023/10/05 07:46:52;;;;;;;;;10.33;8.33;;;;;18.99;100.00;102217.50;5019698;28;45766;-78
2023/10/05 07:49:18;;;;;;;;;8.67;8.67;;;;;19.02;100.00;102207.84;4998521;28;45846;-78
2023/10/05 07:51:44;;;;;;;;;9.00;8.00;;;;;18.98;100.00;102210.25;5010245;28;45960;-78
2023/10/05 07:54:09;;;;;;;;;11.00;9.33;;;;;18.90;100.00;102199.41;5009813;28;45880;-80
2023/10/05 07:56:35;;;;;;;;;10.67;8.33;;;;;18.87;100.00;102200.72;5030247;28;45733;-77
2023/10/05 07:59:01;;;;;;;;;8.67;6.67;;;;;18.88;100.00;102208.00;5008532;28;46142;-77
2023/10/05 08:01:26;;;;;;;;;9.67;9.33;;;;;18.94;100.00;102213.72;5009724;28;45703;-78
2023/10/05 08:03:52;;;;;;;;;10.67;8.33;;;;;18.95;100.00;102218.19;5010211;28;45769;-78
2023/10/05 08:06:18;;;;;;;;;17.67;14.67;;;;;19.01;100.00;102212.56;5011593;28;45762;-78
2023/10/05 08:08:44;;;;;;;;;12.00;9.33;;;;;18.98;100.00;102203.81;5005731;28;46959;-83
2023/10/05 08:11:20;;;;;;;;;12.67;9.67;;;;;19.12;100.00;102230.44;4993396;28;48194;-84
2023/10/05 08:13:45;;;;;;;;;15.33;12.33;;;;;19.22;100.00;102235.44;5012251;28;45446;-84
2023/10/05 08:16:12;;;;;;;;;16.00;10.33;;;;;19.30;100.00;102251.00;5024588;28;45789;-82
2023/10/05 08:18:38;;;;;;;;;17.33;15.33;;;;;19.23;100.00;102238.00;5013372;28;46133;-83
2023/10/05 08:21:07;;;;;;;;;13.33;8.33;;;;;19.32;100.00;102246.88;5014559;28;46446;-85
2023/10/05 08:23:33;;;;;;;;;15.00;15.00;;;;;19.45;100.00;102259.81;5022651;28;45612;-83
2023/10/05 08:25:59;;;;;;;;;12.00;10.33;;;;;19.43;100.00;102247.22;5016268;28;45829;-83
2023/10/05 08:28:24;;;;;;;;;13.33;10.67;;;;;19.57;100.00;102266.31;5017333;28;45647;-84
2023/10/05 08:31:05;;;;;;;;;11.00;11.00;;;;;19.81;100.00;102279.56;5026108;28;46519;-83
2023/10/05 08:33:35;;;;;;;;;9.33;7.33;;;;;19.91;100.00;102291.84;5014240;28;45504;-83
2023/10/05 08:36:06;;;;;;;;;10.00;9.00;;;;;20.01;100.00;102268.16;5035061;28;45342;-83
2023/10/05 08:38:35;;;;;;;;;1.67;1.00;;;;;20.26;100.00;102257.72;5015855;28;45619;-84
2023/10/05 08:41:07;;;;;;;;;5.67;5.67;;;;;20.41;100.00;102248.91;5021657;28;45657;-84
2023/10/05 08:43:37;;;;;;;;;10.67;6.67;;;;;20.52;100.00;102257.53;5021988;28;45607;-84
2023/10/05 08:46:05;;;;;;;;;8.33;7.00;;;;;20.49;100.00;102247.72;4998061;28;45892;-81
2023/10/05 08:51:22;;;;;;;;;9.33;8.33;;;;;20.55;100.00;102291.34;5018099;28;45374;-82
2023/10/05 08:53:54;;;;;;;;;6.67;6.00;;;;;20.49;100.00;102275.56;5014671;28;45913;-81
2023/10/05 08:56:21;;;;;;;;;11.67;9.00;;;;;20.50;100.00;102273.66;5023720;28;45545;-83
2023/10/05 08:58:48;;;;;;;;;7.00;5.67;;;;;20.40;100.00;102282.59;5006262;28;46938;-82
2023/10/05 09:01:30;;;;;;;;;5.33;5.33;;;;;20.35;100.00;102288.03;5016338;28;46373;-85
2023/10/05 09:06:49;;;;;;;;;9.33;7.67;;;;;20.55;100.00;102285.78;5006879;28;45469;-83
2023/10/05 09:09:18;;;;;;;;;11.67;8.33;;;;;20.61;100.00;102251.38;5011823;28;45694;-82
2023/10/05 09:11:43;;;;;;;;;13.00;10.00;;;;;20.96;100.00;102258.97;5014590;28;45876;-82
2023/10/05 09:14:14;;;;;;;;;11.67;8.67;;;;;21.47;100.00;102262.09;5012325;28;45509;-81
2023/10/05 09:16:41;;;;;;;;;9.33;8.67;;;;;22.39;100.00;102239.94;5012045;28;45484;-82
2023/10/05 09:19:08;;;;;;;;;7.33;7.33;;;;;23.69;100.00;102252.84;5014070;28;45684;-83
2023/10/05 09:21:50;;;;;;;;;10.33;7.33;;;;;24.32;100.00;102267.31;5021085;28;46860;-81
2023/10/05 09:24:24;;;;;;;;;18.00;16.67;;;;;24.85;100.00;102263.91;5012743;28;45602;-81
2023/10/05 09:26:55;;;;;;;;;9.33;8.33;;;;;25.19;100.00;102278.50;5025168;28;45635;-82
2023/10/05 09:29:22;;;;;;;;;9.67;6.67;;;;;25.58;100.00;102271.69;5011282;28;45937;-83
2023/10/05 09:31:53;;;;;;;;;11.67;9.67;;;;;25.83;100.00;102244.84;5012677;28;47569;-82
2023/10/05 09:34:38;;;;;;;;;7.33;7.33;;;;;26.36;100.00;102270.00;5009616;28;45438;-82
2023/10/05 09:37:06;;;;;;;;;9.25;8.25;;;;;26.41;99.06;102270.88;5025306;28;46112;-83
2023/10/05 09:39:43;;;;;;;;;9.50;7.50;;;;;26.84;96.86;102256.56;5022772;28;46113;-81
2023/10/05 09:42:27;;;;;;;;;8.00;6.75;;;;;27.87;92.38;102273.19;5012252;28;45489;-81
2023/10/05 09:44:57;;;;;;;;;9.75;5.75;;;;;28.22;87.59;102274.19;5005772;28;45551;-81
2023/10/05 09:47:32;;;;;;;;;5.00;5.00;;;;;28.26;84.15;102266.78;5011473;28;45886;-82
2023/10/05 09:50:00;;;;;;;;;7.25;5.00;;;;;28.52;80.25;102273.09;5009786;28;45767;-84
2023/10/05 09:52:34;;;;;;;;;4.50;4.50;;;;;28.60;77.42;102274.50;5019952;28;46023;-83
2023/10/05 09:55:03;;;;;;;;;4.00;3.00;;;;;28.74;75.60;102263.34;5013086;28;45929;-80
2023/10/05 09:57:35;;;;;;;;;5.25;3.25;;;;;29.09;74.92;102261.34;5014156;28;45896;-84
2023/10/05 10:00:27;;;;;;;;;4.00;4.00;;;;;28.87;71.41;102233.59;5014522;28;45811;-82
2023/10/05 10:02:58;;;;;;;;;6.25;3.25;;;;;28.48;71.05;102234.47;5026176;28;47343;-83
2023/10/05 10:05:26;;;;;;;;;5.00;2.00;;;;;28.18;71.08;102236.38;5012251;28;45576;-83
2023/10/05 10:07:56;;;;;;;;;2.50;2.50;;;;;27.59;69.05;102222.03;5006545;28;44878;-82
2023/10/05 10:10:24;;;;;;;;;4.75;3.00;;;;;27.28;71.20;102241.81;5013614;28;46357;-84
2023/10/05 10:12:55;;;;;;;;;1.00;1.00;;;;;27.08;70.83;102237.09;5017720;28;45549;-84
2023/10/05 10:15:33;;;;;;;;;4.25;2.25;;;;;27.19;74.51;102237.91;5014806;28;45856;-83
2023/10/05 10:18:15;;;;;;;;;2.50;2.50;;;;;27.23;72.26;102247.50;5013235;28;45228;-83
2023/10/05 10:20:53;;;;;;;;;2.75;2.25;;;;;27.17;71.99;102248.63;5014388;28;45783;-82
2023/10/05 10:23:27;;;;;;;;;3.75;3.00;;;;;26.94;72.01;102230.34;5010752;28;45601;-83
2023/10/05 10:26:16;;;;;;;;;5.50;4.00;;;;;26.61;73.11;102226.97;5006101;28;45542;-80
2023/10/05 10:31:22;;;;;;;;;4.00;2.50;;;;;26.13;71.72;102221.59;5015454;28;46431;-82
2023/10/05 10:33:52;;;;;;;;;2.00;2.00;;;;;25.86;71.85;102221.78;5008047;28;45518;-85
2023/10/05 10:36:41;;;;;;;;;3.00;2.75;;;;;25.70;74.45;102234.94;5012475;28;45752;-85
2023/10/05 10:39:22;;;;;;;;;4.25;2.00;;;;;25.54;73.14;102226.47;5009547;28;45558;-84
2023/10/05 10:42:01;;;;;;;;;3.00;2.25;;;;;25.41;74.09;102246.63;5014142;28;45823;-84
2023/10/05 10:44:27;;;;;;;;;3.50;3.50;;;;;25.33;73.52;102250.78;5009973;28;47023;-87
2023/10/05 10:47:14;;;;;;;;;2.00;2.00;;;;;25.17;74.52;102258.25;5012223;28;45812;-86
2023/10/05 10:49:40;;;;;;;;;3.25;3.25;;;;;24.74;72.71;102201.25;5010313;28;45412;-80
2023/10/05 10:52:10;;;;;;;;;2.50;2.00;;;;;24.90;74.48;102249.09;5004290;28;45591;-81
2023/10/05 10:54:48;;;;;;;;;2.00;2.00;;;;;24.99;73.39;102253.06;5006112;28;46326;-79
2023/10/05 10:57:20;;;;;;;;;3.50;2.50;;;;;25.12;72.88;102223.66;5000300;28;46452;-79
2023/10/05 10:59:46;;;;;;;;;8.25;5.75;;;;;25.54;72.80;102236.88;5003912;28;45604;-79
2023/10/05 11:02:26;;;;;;;;;2.00;1.50;;;;;25.67;71.30;102224.25;5008508;28;45830;-85
2023/10/05 11:04:51;;;;;;;;;1.50;1.50;;;;;25.65;71.48;102226.50;5009910;28;45533;-82
2023/10/05 11:07:22;;;;;;;;;5.00;4.50;;;;;25.76;72.38;102233.84;5011387;28;45856;-85
2023/10/05 11:09:52;;;;;;;;;6.00;5.00;;;;;25.85;71.42;102253.81;5011195;28;45749;-84
2023/10/05 11:12:22;;;;;;;;;3.25;2.00;;;;;25.77;71.47;102238.34;5010135;28;47515;-85
2023/10/05 11:14:51;;;;;;;;;2.75;1.50;;;;;25.53;70.97;102226.72;5007439;28;47128;-82
2023/10/05 11:17:23;;;;;;;;;5.00;3.00;;;;;25.47;72.81;102231.47;5007793;28;45766;-80
2023/10/05 11:19:49;;;;;;;;;3.00;2.50;;;;;25.37;72.05;102225.81;5022118;28;45783;-79
2023/10/05 11:22:23;;;;;;;;;4.50;2.75;;;;;25.34;71.95;102226.34;5007223;28;45565;-80
2023/10/05 11:25:23;;;;;;;;;1.25;1.25;;;;;25.25;70.68;102233.56;5004979;28;46847;-79
2023/10/05 11:27:56;;;;;;;;;2.25;2.25;;;;;25.15;73.56;102234.34;5006317;28;45697;-79
2023/10/05 11:30:25;;;;;;;;;3.25;2.00;;;;;25.18;71.33;102225.38;5023680;28;45631;-79
2023/10/05 11:32:56;;;;;;;;;2.00;2.00;;;;;25.10;69.61;102217.50;5010362;28;45672;-79
2023/10/05 11:35:29;;;;;;;;;4.00;2.00;;;;;25.09;70.31;102212.97;5011898;28;45502;-79
2023/10/05 11:37:59;;;;;;;;;2.75;1.00;;;;;24.94;69.27;102185.66;5009877;28;45490;-79
2023/10/05 11:40:34;;;;;;;;;3.75;2.00;;;;;25.03;69.54;102209.31;5010864;28;45425;-80
2023/10/05 11:43:04;;;;;;;;;1.00;1.00;;;;;24.93;69.78;102207.28;5011298;28;45557;-81
2023/10/05 11:45:30;;;;;;;;;2.00;2.00;;;;;24.68;70.41;102179.88;5010981;28;46370;-80
2023/10/05 11:47:57;;;;;;;;;3.00;2.00;;;;;24.57;67.85;102204.19;5009180;28;45394;-82
2023/10/05 11:50:32;;;;;;;;;3.25;1.75;;;;;24.12;68.40;102197.88;5011207;28;45766;-81